Time;durP1;ratioP1;P1;durP2;ratioP2;P2;SDS_P1;SDS_P2;PMS_P1;PMS_P2;Temp;Humidity;BMP_temperature;BMP_pressure;BME280_temperature;BME280_humidity;BME280_pressure;Samples;Min_cycle;Max_cycle;Signal;HPM_P1;HPM_P2
2023/06/18 00:01:59;;;;;;;14.20;9.20;;;24.90;65.10;;;;;;4991431;28;20501;-76
2023/06/18 00:04:25;;;;;;;12.60;8.95;;;24.90;65.40;;;;;;4991495;28;20459;-75
2023/06/18 00:06:52;;;;;;;15.77;9.68;;;24.90;65.00;;;;;;4991589;28;20046;-74
2023/06/18 00:09:17;;;;;;;12.55;9.18;;;24.90;64.90;;;;;;4991650;28;20126;-76
2023/06/18 00:11:43;;;;;;;13.32;9.68;;;24.90;64.80;;;;;;4991494;28;20026;-76
2023/06/18 00:14:09;;;;;;;13.77;9.48;;;24.80;64.80;;;;;;4991608;28;20129;-77
2023/06/18 00:16:35;;;;;;;13.65;10.15;;;24.70;64.90;;;;;;4991620;28;20035;-75
2023/06/18 00:19:00;;;;;;;18.75;9.45;;;24.70;64.90;;;;;;4993634;28;20126;-76
2023/06/18 00:21:26;;;;;;;14.00;9.10;;;24.60;65.10;;;;;;4995441;28;20492;-77
2023/06/18 00:23:52;;;;;;;13.88;9.60;;;24.50;65.00;;;;;;4995470;28;20416;-75
2023/06/18 00:26:18;;;;;;;15.15;9.30;;;24.40;64.90;;;;;;4995250;28;20034;-76
2023/06/18 00:28:44;;;;;;;14.95;10.20;;;24.50;65.20;;;;;;4977665;28;20039;-76
2023/06/18 00:31:11;;;;;;;12.43;9.25;;;24.50;65.10;;;;;;4994021;28;20400;-75
2023/06/18 00:33:37;;;;;;;13.20;8.98;;;24.40;65.00;;;;;;4995121;28;20400;-76
2023/06/18 00:36:06;;;;;;;13.02;9.20;;;24.40;65.10;;;;;;4995321;28;20109;-77
2023/06/18 00:38:33;;;;;;;12.85;8.77;;;24.50;65.30;;;;;;4994967;28;20038;-76
2023/06/18 00:40:59;;;;;;;12.63;8.80;;;24.40;65.30;;;;;;4994889;28;20385;-76
2023/06/18 00:43:28;;;;;;;15.43;9.00;;;24.40;65.30;;;;;;4995186;28;20038;-77
2023/06/18 00:45:59;;;;;;;16.27;9.02;;;24.40;65.00;;;;;;4995453;28;20045;-76
2023/06/18 00:48:25;;;;;;;13.65;9.18;;;24.30;65.40;;;;;;4977512;28;20074;-77
2023/06/18 00:50:53;;;;;;;14.07;9.27;;;24.30;65.50;;;;;;4994561;28;20113;-76
2023/06/18 00:53:20;;;;;;;14.88;9.43;;;24.20;65.30;;;;;;4977467;28;20342;-76
2023/06/18 00:55:47;;;;;;;11.75;8.98;;;24.20;65.60;;;;;;4994814;28;20429;-76
2023/06/18 00:58:13;;;;;;;15.65;8.45;;;24.20;65.30;;;;;;4994804;28;20392;-75
2023/06/18 01:00:40;;;;;;;13.85;8.18;;;24.20;65.30;;;;;;4994556;28;20396;-76
2023/06/18 01:03:16;;;;;;;13.52;8.40;;;24.10;65.10;;;;;;4994833;28;20468;-76
2023/06/18 01:05:58;;;;;;;12.80;8.52;;;24.10;65.00;;;;;;4994481;28;20069;-76
2023/06/18 01:08:24;;;;;;;15.45;8.68;;;24.10;64.80;;;;;;4994712;28;20066;-75
2023/06/18 01:11:04;;;;;;;15.27;7.90;;;24.00;65.00;;;;;;4994952;28;20027;-75
2023/06/18 01:13:32;;;;;;;13.45;8.30;;;23.90;65.00;;;;;;5005951;28;20074;-76
2023/06/18 01:16:03;;;;;;;11.82;7.90;;;23.90;65.20;;;;;;5008980;28;20026;-77
2023/06/18 01:18:36;;;;;;;10.20;7.30;;;23.80;65.00;;;;;;4996021;28;20038;-74
2023/06/18 01:21:15;;;;;;;10.38;7.28;;;23.70;64.70;;;;;;4994976;28;20033;-77
2023/06/18 01:24:04;;;;;;;9.85;6.93;;;23.60;64.70;;;;;;4994144;28;20129;-76
2023/06/18 01:26:31;;;;;;;10.85;7.35;;;23.60;64.70;;;;;;4994421;28;20034;-75
2023/06/18 01:29:01;;;;;;;8.52;6.53;;;23.60;64.50;;;;;;4993981;28;20064;-74
2023/06/18 01:31:34;;;;;;;11.98;6.75;;;23.60;64.60;;;;;;4994351;28;20042;-75
2023/06/18 01:34:01;;;;;;;9.65;6.90;;;23.50;64.10;;;;;;4994261;28;20516;-74
2023/06/18 01:36:34;;;;;;;11.10;6.93;;;23.50;64.20;;;;;;4994126;28;20034;-76
2023/06/18 01:39:06;;;;;;;9.18;6.50;;;23.40;63.70;;;;;;4994288;28;20103;-75
2023/06/18 01:41:36;;;;;;;13.43;6.40;;;23.40;63.90;;;;;;4994023;28;20084;-75
2023/06/18 01:44:08;;;;;;;8.88;6.55;;;23.40;64.60;;;;;;4994083;28;20293;-76
2023/06/18 01:46:34;;;;;;;9.23;6.72;;;23.40;64.00;;;;;;4994039;28;20102;-75
2023/06/18 01:49:07;;;;;;;9.13;6.38;;;23.40;63.70;;;;;;4993762;28;20133;-76
2023/06/18 01:51:36;;;;;;;10.55;6.35;;;23.40;63.70;;;;;;4993546;28;20158;-77
2023/06/18 01:54:05;;;;;;;9.23;5.88;;;23.40;63.80;;;;;;4993811;28;20072;-77
2023/06/18 01:56:32;;;;;;;10.00;6.32;;;23.40;63.80;;;;;;4993824;28;20026;-76
2023/06/18 01:58:58;;;;;;;10.98;6.38;;;23.30;63.80;;;;;;4993936;28;20068;-75
2023/06/18 02:01:25;;;;;;;12.77;6.18;;;23.30;63.40;;;;;;4993687;28;20047;-77
2023/06/18 02:03:51;;;;;;;9.80;6.00;;;23.30;63.30;;;;;;4993114;28;20034;-76
2023/06/18 02:06:17;;;;;;;10.77;7.00;;;23.20;63.50;;;;;;4993596;28;20483;-76
2023/06/18 02:08:43;;;;;;;8.90;6.25;;;23.10;63.50;;;;;;4993200;28;20050;-76
2023/06/18 02:11:08;;;;;;;11.07;6.57;;;23.20;63.40;;;;;;4993195;28;20065;-76
2023/06/18 02:13:34;;;;;;;7.80;6.10;;;23.20;63.30;;;;;;4994019;28;20033;-77
2023/06/18 02:16:00;;;;;;;8.38;5.95;;;23.30;63.40;;;;;;4993734;28;20043;-77
2023/06/18 02:18:25;;;;;;;10.60;6.40;;;23.30;63.10;;;;;;4993368;28;20053;-75
2023/06/18 02:20:51;;;;;;;7.75;5.78;;;23.20;63.20;;;;;;4993136;28;20072;-74
2023/06/18 02:23:17;;;;;;;9.70;5.80;;;23.20;63.20;;;;;;4993124;28;20053;-75
2023/06/18 02:25:44;;;;;;;10.60;6.13;;;23.10;63.30;;;;;;4992909;28;20188;-74
2023/06/18 02:28:10;;;;;;;8.75;5.75;;;23.10;63.30;;;;;;4992946;28;20567;-75
2023/06/18 02:30:35;;;;;;;7.82;5.80;;;23.10;63.30;;;;;;4992703;28;20085;-75
2023/06/18 02:33:02;;;;;;;8.73;6.07;;;23.10;63.40;;;;;;4992630;28;20026;-75
2023/06/18 02:35:29;;;;;;;9.45;5.80;;;23.10;63.50;;;;;;4992962;28;20043;-76
2023/06/18 02:37:55;;;;;;;8.80;6.50;;;23.10;63.50;;;;;;4993011;28;20496;-75
2023/06/18 02:40:21;;;;;;;8.75;5.78;;;23.10;63.50;;;;;;4992203;28;20067;-76
2023/06/18 02:42:48;;;;;;;8.35;6.05;;;23.10;63.10;;;;;;4992470;28;20211;-77
2023/06/18 02:45:25;;;;;;;7.93;5.57;;;23.10;63.20;;;;;;4993238;28;20042;-76
2023/06/18 02:47:51;;;;;;;8.07;6.10;;;23.00;63.10;;;;;;4992488;28;20033;-77
2023/06/18 02:50:18;;;;;;;14.90;6.43;;;23.00;63.50;;;;;;4992863;28;20117;-76
2023/06/18 02:52:47;;;;;;;7.75;6.20;;;23.00;63.70;;;;;;4992724;28;20042;-75
2023/06/18 02:55:13;;;;;;;9.13;6.07;;;23.00;63.90;;;;;;4992398;28;20040;-76
2023/06/18 02:57:40;;;;;;;9.80;6.13;;;23.00;63.50;;;;;;4992411;28;20038;-76
2023/06/18 03:00:09;;;;;;;10.45;6.13;;;22.90;63.70;;;;;;4992245;28;20046;-78
2023/06/18 03:02:35;;;;;;;10.65;6.65;;;22.90;63.70;;;;;;4992514;28;20407;-75
2023/06/18 03:05:01;;;;;;;10.85;6.65;;;22.80;64.00;;;;;;4992415;28;20104;-76
2023/06/18 03:07:27;;;;;;;12.57;6.60;;;22.80;64.00;;;;;;4992325;28;20046;-76
2023/06/18 03:09:53;;;;;;;14.35;6.30;;;22.90;63.90;;;;;;4992007;28;20088;-75
2023/06/18 03:12:19;;;;;;;9.27;6.53;;;22.90;64.00;;;;;;4992147;28;20369;-76
2023/06/18 03:14:45;;;;;;;11.75;6.63;;;22.90;64.00;;;;;;4992629;28;20058;-77
2023/06/18 03:17:11;;;;;;;8.55;6.40;;;23.00;64.00;;;;;;4991919;28;20061;-75
2023/06/18 03:19:37;;;;;;;9.10;6.63;;;23.00;64.00;;;;;;4992014;28;20459;-75
2023/06/18 03:22:04;;;;;;;11.15;7.05;;;22.90;63.80;;;;;;4991839;28;20125;-76
2023/06/18 03:24:30;;;;;;;10.15;6.43;;;22.90;63.80;;;;;;4992160;28;20042;-76
2023/06/18 03:26:59;;;;;;;12.10;6.60;;;22.80;64.10;;;;;;5008491;28;20094;-77
2023/06/18 03:29:25;;;;;;;10.15;6.63;;;22.80;63.80;;;;;;5002721;28;20099;-76
2023/06/18 03:31:55;;;;;;;10.63;6.82;;;22.80;64.40;;;;;;4992195;28;20034;-77
2023/06/18 03:34:21;;;;;;;16.02;7.00;;;22.80;64.30;;;;;;4992113;28;20064;-76
2023/06/18 03:36:48;;;;;;;11.38;6.30;;;22.90;64.30;;;;;;4992144;28;20066;-77
2023/06/18 03:39:18;;;;;;;10.18;6.63;;;22.90;64.10;;;;;;4991960;28;20038;-77
2023/06/18 03:41:44;;;;;;;11.23;6.15;;;22.90;64.10;;;;;;4991805;28;20132;-75
2023/06/18 03:44:10;;;;;;;10.80;7.00;;;22.90;64.10;;;;;;4992660;28;20047;-77
2023/06/18 03:46:36;;;;;;;10.13;6.20;;;22.90;64.00;;;;;;4991796;28;20479;-75
2023/06/18 03:49:03;;;;;;;10.38;6.45;;;22.90;63.90;;;;;;4991738;28;20551;-76
2023/06/18 03:51:28;;;;;;;13.35;6.60;;;22.80;64.10;;;;;;4991756;28;20037;-77
2023/06/18 03:53:54;;;;;;;11.25;6.53;;;22.70;63.80;;;;;;4991875;28;20039;-77
2023/06/18 03:56:24;;;;;;;8.25;6.13;;;22.70;64.00;;;;;;4991486;28;20026;-77
2023/06/18 03:58:49;;;;;;;16.73;6.75;;;22.70;64.00;;;;;;4992007;28;20042;-77
2023/06/18 04:01:15;;;;;;;11.15;6.50;;;22.70;64.20;;;;;;4991895;28;20034;-76
2023/06/18 04:03:41;;;;;;;11.18;6.32;;;22.80;64.10;;;;;;4992055;28;20033;-75
2023/06/18 04:06:07;;;;;;;9.38;5.80;;;22.70;64.10;;;;;;4991931;28;20445;-77
2023/06/18 04:08:34;;;;;;;10.10;6.22;;;22.70;64.20;;;;;;4991560;28;20055;-77
2023/06/18 04:11:00;;;;;;;11.02;6.10;;;22.70;64.10;;;;;;4991699;28;20042;-76
2023/06/18 04:13:28;;;;;;;8.57;5.70;;;22.70;64.00;;;;;;4991928;28;20140;-75
2023/06/18 04:15:54;;;;;;;11.18;5.97;;;22.70;63.90;;;;;;4974729;28;20031;-77
2023/06/18 04:18:20;;;;;;;10.88;5.97;;;22.70;63.90;;;;;;4991458;28;20041;-76
2023/06/18 04:20:46;;;;;;;9.40;5.95;;;22.70;63.80;;;;;;4991524;28;20185;-76
2023/06/18 04:23:12;;;;;;;9.52;5.60;;;22.70;63.20;;;;;;4991375;28;20473;-76
2023/06/18 04:25:38;;;;;;;8.55;5.55;;;22.60;63.20;;;;;;4991613;28;20046;-76
2023/06/18 04:28:04;;;;;;;9.73;5.57;;;22.50;63.30;;;;;;4991408;28;20118;-76
2023/06/18 04:30:30;;;;;;;10.40;6.03;;;22.50;63.30;;;;;;4991670;28;20046;-76
2023/06/18 04:32:56;;;;;;;8.02;5.35;;;22.50;63.30;;;;;;4991488;28;20133;-75
2023/06/18 04:35:22;;;;;;;10.05;5.57;;;22.60;63.20;;;;;;4974366;28;20108;-76
2023/06/18 04:37:47;;;;;;;9.35;5.55;;;22.60;63.00;;;;;;4991289;28;20031;-77
2023/06/18 04:40:13;;;;;;;11.00;5.45;;;22.60;62.90;;;;;;4991089;28;20080;-77
2023/06/18 04:42:39;;;;;;;7.93;5.78;;;22.70;63.00;;;;;;4991308;28;20045;-77
2023/06/18 04:45:05;;;;;;;10.80;5.80;;;22.70;62.90;;;;;;4991226;28;20050;-76
2023/06/18 04:47:32;;;;;;;10.38;5.65;;;22.60;62.70;;;;;;4991228;28;20070;-77
2023/06/18 04:49:57;;;;;;;8.80;5.47;;;22.70;63.00;;;;;;4991105;28;20038;-78
2023/06/18 04:52:23;;;;;;;8.10;5.53;;;22.60;62.70;;;;;;4991150;28;20022;-76
2023/06/18 04:54:52;;;;;;;7.82;5.32;;;22.60;62.90;;;;;;4991533;28;20041;-76
2023/06/18 04:57:19;;;;;;;8.57;5.50;;;22.60;62.80;;;;;;4991392;28;20030;-78
2023/06/18 04:59:46;;;;;;;7.05;5.15;;;22.60;62.50;;;;;;4991277;28;20449;-77
2023/06/18 05:02:12;;;;;;;9.32;5.55;;;22.60;62.50;;;;;;4990915;28;20043;-76
2023/06/18 05:04:37;;;;;;;8.45;5.38;;;22.60;62.60;;;;;;4992608;28;20101;-76
2023/06/18 05:07:03;;;;;;;9.75;5.75;;;22.70;62.40;;;;;;4994428;28;20066;-77
2023/06/18 05:09:30;;;;;;;13.60;5.53;;;22.80;62.30;;;;;;4994504;28;20046;-76
2023/06/18 05:11:55;;;;;;;7.22;5.20;;;22.90;62.50;;;;;;4994221;28;20038;-77
2023/06/18 05:14:21;;;;;;;9.77;5.60;;;23.00;62.00;;;;;;4994778;28;20030;-77
2023/06/18 05:16:47;;;;;;;8.68;4.93;;;23.10;61.70;;;;;;4994526;28;20042;-77
2023/06/18 05:19:12;;;;;;;7.70;4.97;;;23.20;61.30;;;;;;4994636;28;20603;-78
2023/06/18 05:21:38;;;;;;;8.30;5.15;;;23.50;61.00;;;;;;4994679;28;20159;-76
2023/06/18 05:24:05;;;;;;;8.38;5.05;;;23.60;60.80;;;;;;4994492;28;20496;-76
2023/06/18 05:26:31;;;;;;;7.85;5.45;;;23.90;60.40;;;;;;4994591;28;20034;-78
2023/06/18 05:28:57;;;;;;;8.20;5.43;;;24.10;59.50;;;;;;4994387;28;20434;-77
2023/06/18 05:31:22;;;;;;;9.25;4.97;;;24.30;59.30;;;;;;4976552;28;20046;-76
2023/06/18 05:33:48;;;;;;;9.35;5.88;;;24.50;58.80;;;;;;4994386;28;20109;-76
2023/06/18 05:36:14;;;;;;;7.93;5.25;;;24.70;58.30;;;;;;4994398;28;20042;-77
2023/06/18 05:38:40;;;;;;;9.43;5.25;;;24.90;58.60;;;;;;4994335;28;20109;-77
2023/06/18 05:41:05;;;;;;;10.35;5.85;;;25.20;57.90;;;;;;5002147;28;20274;-75
2023/06/18 05:43:31;;;;;;;8.25;5.57;;;25.30;57.60;;;;;;4995873;28;20039;-76
2023/06/18 05:45:57;;;;;;;11.38;6.55;;;25.40;57.90;;;;;;4994567;28;20381;-78
2023/06/18 05:48:23;;;;;;;9.23;5.72;;;25.50;58.40;;;;;;4994438;28;20081;-76
2023/06/18 05:50:48;;;;;;;11.95;6.13;;;25.70;57.70;;;;;;4993922;28;20046;-76
2023/06/18 05:53:14;;;;;;;7.47;5.38;;;25.90;57.10;;;;;;4994147;28;20034;-75
2023/06/18 05:55:40;;;;;;;9.65;5.60;;;26.10;56.80;;;;;;4993993;28;20038;-75
2023/06/18 05:58:06;;;;;;;8.73;5.38;;;26.10;56.60;;;;;;4994088;28;20058;-76
2023/06/18 06:00:32;;;;;;;10.40;5.25;;;26.40;56.00;;;;;;4993889;28;20485;-78
2023/06/18 06:02:58;;;;;;;8.20;5.53;;;26.60;55.70;;;;;;4993916;28;20035;-76
2023/06/18 06:05:23;;;;;;;8.77;5.35;;;26.80;55.30;;;;;;4993982;28;20504;-79
2023/06/18 06:07:50;;;;;;;12.60;5.35;;;26.90;54.80;;;;;;4994298;28;20050;-79
2023/06/18 06:10:17;;;;;;;8.95;5.30;;;27.00;54.80;;;;;;4995563;28;20062;-75
2023/06/18 06:12:43;;;;;;;9.43;5.50;;;27.30;54.50;;;;;;4995222;28;20035;-82
2023/06/18 06:15:09;;;;;;;8.32;5.38;;;27.50;53.80;;;;;;4996129;28;20034;-84
2023/06/18 06:17:36;;;;;;;9.90;5.93;;;27.70;53.60;;;;;;4995530;28;20033;-83
2023/06/18 06:20:01;;;;;;;7.45;5.15;;;27.80;53.00;;;;;;4995717;28;20125;-85
2023/06/18 06:22:27;;;;;;;9.18;5.68;;;27.90;52.40;;;;;;4996142;28;20034;-83
2023/06/18 06:24:53;;;;;;;8.95;5.05;;;27.90;52.50;;;;;;4978175;28;20539;-83
2023/06/18 06:27:18;;;;;;;11.52;5.30;;;28.10;52.10;;;;;;4995578;28;20030;-83
2023/06/18 06:29:44;;;;;;;12.57;5.32;;;28.40;51.60;;;;;;4995400;28;20073;-83
2023/06/18 06:32:10;;;;;;;9.93;5.80;;;28.50;51.10;;;;;;4994938;28;20058;-82
2023/06/18 06:34:35;;;;;;;8.75;5.50;;;28.60;50.80;;;;;;4999878;28;20102;-83
2023/06/18 06:37:01;;;;;;;10.40;5.97;;;28.50;51.00;;;;;;5002292;28;20101;-86
2023/06/18 06:39:27;;;;;;;9.40;5.65;;;28.50;51.00;;;;;;4999879;28;20046;-88
2023/06/18 06:41:52;;;;;;;9.60;5.03;;;28.60;50.90;;;;;;5005917;28;20045;-87
2023/06/18 06:44:18;;;;;;;7.20;5.20;;;28.80;50.50;;;;;;5000360;28;20045;-87
2023/06/18 06:46:44;;;;;;;7.55;5.38;;;28.90;50.20;;;;;;4996595;28;20095;-87
2023/06/18 06:49:10;;;;;;;12.05;6.50;;;28.90;50.10;;;;;;4996165;28;20507;-90
2023/06/18 06:51:36;;;;;;;8.75;5.13;;;28.90;50.60;;;;;;4994708;28;20093;-83
2023/06/18 06:54:03;;;;;;;11.55;5.53;;;29.00;50.00;;;;;;4993426;28;20042;-80
2023/06/18 06:56:30;;;;;;;11.80;5.60;;;29.10;50.10;;;;;;4993509;28;20538;-81
2023/06/18 06:58:56;;;;;;;9.07;5.22;;;29.30;50.20;;;;;;4993265;28;20499;-83
2023/06/18 07:01:22;;;;;;;7.95;4.95;;;29.60;49.70;;;;;;4993502;28;20030;-81
2023/06/18 07:03:47;;;;;;;8.88;5.25;;;29.70;49.50;;;;;;4975481;28;20031;-83
2023/06/18 07:06:13;;;;;;;11.57;5.03;;;29.70;49.30;;;;;;4994058;28;20034;-80
2023/06/18 07:08:39;;;;;;;12.25;5.22;;;29.70;48.80;;;;;;4993377;28;20061;-80
2023/06/18 07:11:05;;;;;;;10.45;5.32;;;29.80;49.20;;;;;;4993238;28;20041;-81
2023/06/18 07:13:30;;;;;;;11.52;5.55;;;29.90;48.90;;;;;;4993291;28;20030;-82
2023/06/18 07:15:56;;;;;;;10.60;5.95;;;30.00;48.50;;;;;;4992941;28;20046;-83
2023/06/18 07:18:22;;;;;;;11.85;5.90;;;30.00;48.30;;;;;;4993062;28;20563;-84
2023/06/18 07:20:47;;;;;;;15.73;6.15;;;30.10;48.30;;;;;;4992466;28;20395;-81
2023/06/18 07:23:13;;;;;;;11.15;5.22;;;30.10;48.20;;;;;;4992551;28;20088;-79
2023/06/18 07:25:39;;;;;;;11.27;6.80;;;30.20;48.10;;;;;;4992468;28;20084;-80
2023/06/18 07:28:05;;;;;;;9.40;5.88;;;30.30;48.20;;;;;;4991713;28;20416;-81
2023/06/18 07:30:30;;;;;;;7.82;5.05;;;30.40;48.20;;;;;;4992309;28;20030;-79
2023/06/18 07:32:56;;;;;;;9.10;5.40;;;30.40;47.90;;;;;;4992287;28;20038;-80
2023/06/18 07:35:21;;;;;;;13.32;6.15;;;30.30;47.70;;;;;;4992111;28;20038;-80
2023/06/18 07:37:47;;;;;;;11.65;5.30;;;30.30;47.70;;;;;;4991929;28;20030;-79
2023/06/18 07:40:13;;;;;;;13.55;6.20;;;30.20;47.80;;;;;;4992074;28;20038;-81
2023/06/18 07:42:39;;;;;;;14.20;7.13;;;30.10;48.10;;;;;;4992153;28;20126;-79
2023/06/18 07:45:05;;;;;;;10.18;5.93;;;30.20;48.50;;;;;;4991702;28;20492;-79
2023/06/18 07:47:31;;;;;;;16.67;6.70;;;30.20;48.10;;;;;;4991671;28;20041;-80
2023/06/18 07:49:59;;;;;;;13.00;6.80;;;30.20;48.60;;;;;;4991850;28;20477;-78
2023/06/18 07:52:24;;;;;;;29.60;12.52;;;30.30;48.30;;;;;;4992033;28;20034;-78
2023/06/18 07:54:50;;;;;;;15.95;7.85;;;30.30;48.70;;;;;;4991880;28;20143;-77
2023/06/18 07:57:16;;;;;;;16.13;7.70;;;30.30;48.70;;;;;;4992051;28;20332;-79
2023/06/18 07:59:42;;;;;;;29.88;12.43;;;30.30;48.00;;;;;;4991860;28;20042;-79
2023/06/18 08:02:07;;;;;;;11.68;6.50;;;30.30;49.20;;;;;;4991554;28;20444;-79
2023/06/18 08:04:33;;;;;;;16.00;8.43;;;30.30;48.60;;;;;;4991926;28;20133;-78
2023/06/18 08:06:59;;;;;;;9.45;6.18;;;30.20;48.80;;;;;;4991707;28;20086;-80
2023/06/18 08:09:25;;;;;;;9.02;5.40;;;30.20;48.50;;;;;;4993702;28;20045;-80
2023/06/18 08:11:51;;;;;;;11.85;6.05;;;30.10;48.70;;;;;;4993591;28;20105;-78
2023/06/18 08:14:18;;;;;;;12.77;5.47;;;30.00;48.50;;;;;;4991766;28;20030;-78
2023/06/18 08:16:46;;;;;;;12.38;5.25;;;29.90;48.30;;;;;;4991531;28;20031;-77
2023/06/18 08:19:12;;;;;;;7.07;5.30;;;29.80;48.40;;;;;;4991862;28;20035;-78
2023/06/18 08:21:37;;;;;;;14.50;7.35;;;29.90;48.60;;;;;;4991451;28;20555;-78
2023/06/18 08:24:03;;;;;;;20.13;10.18;;;29.80;48.70;;;;;;4991437;28;20053;-79
2023/06/18 08:26:29;;;;;;;15.05;7.88;;;29.90;48.90;;;;;;4991510;28;20035;-80
2023/06/18 08:28:55;;;;;;;10.48;6.13;;;29.80;48.90;;;;;;4991605;28;20121;-79
2023/06/18 08:31:21;;;;;;;16.25;8.45;;;29.80;48.60;;;;;;4991323;28;20034;-79
2023/06/18 08:33:48;;;;;;;18.52;9.38;;;29.80;48.80;;;;;;4992355;28;20034;-79
2023/06/18 08:36:14;;;;;;;8.60;5.80;;;29.80;49.40;;;;;;4991846;28;20045;-79
2023/06/18 08:38:40;;;;;;;15.85;7.82;;;29.70;48.90;;;;;;4991696;28;20035;-79
2023/06/18 08:41:07;;;;;;;8.48;5.68;;;29.60;49.10;;;;;;4995234;28;20118;-79
2023/06/18 08:43:36;;;;;;;12.93;6.03;;;29.60;49.30;;;;;;4995772;28;20030;-79
2023/06/18 08:46:10;;;;;;;10.45;6.25;;;29.50;49.50;;;;;;4995352;28;20050;-79
2023/06/18 08:48:50;;;;;;;10.90;6.22;;;29.40;49.70;;;;;;4995345;28;20108;-81
2023/06/18 08:51:16;;;;;;;12.65;6.20;;;29.30;50.10;;;;;;4995341;28;20045;-79
2023/06/18 08:53:48;;;;;;;11.93;7.18;;;29.30;50.40;;;;;;4995215;28;20128;-80
2023/06/18 08:56:15;;;;;;;14.07;8.45;;;29.30;50.60;;;;;;4995415;28;20049;-77
2023/06/18 08:58:49;;;;;;;18.52;8.88;;;29.30;51.20;;;;;;4995219;28;20121;-79
2023/06/18 09:01:15;;;;;;;11.15;6.47;;;29.40;51.80;;;;;;4994883;28;20046;-79
2023/06/18 09:03:41;;;;;;;19.67;9.57;;;29.40;51.40;;;;;;4977507;28;20040;-79
2023/06/18 09:06:07;;;;;;;10.20;6.60;;;29.40;51.20;;;;;;4995097;28;20411;-79
2023/06/18 09:08:35;;;;;;;12.88;7.35;;;29.40;51.10;;;;;;4994607;28;20049;-80
2023/06/18 09:11:02;;;;;;;15.48;7.93;;;29.40;51.10;;;;;;4994802;28;20057;-79
2023/06/18 09:13:27;;;;;;;20.88;11.50;;;29.40;51.40;;;;;;4994983;28;20030;-79
2023/06/18 09:15:53;;;;;;;14.30;7.53;;;29.40;51.90;;;;;;4995006;28;20038;-79
2023/06/18 09:18:21;;;;;;;13.75;7.65;;;29.40;51.80;;;;;;4995239;28;20041;-80
2023/06/18 09:20:48;;;;;;;10.13;6.20;;;29.40;51.80;;;;;;4977415;28;20034;-75
2023/06/18 09:23:14;;;;;;;9.63;6.38;;;29.40;51.50;;;;;;4995110;28;20145;-79
2023/06/18 09:25:39;;;;;;;11.25;5.80;;;29.40;51.50;;;;;;4997101;28;20061;-80
2023/06/18 09:28:05;;;;;;;11.90;6.80;;;29.40;51.20;;;;;;4995283;28;20105;-80
2023/06/18 09:30:31;;;;;;;10.88;5.53;;;29.30;51.30;;;;;;4994625;28;20488;-78
2023/06/18 09:32:59;;;;;;;14.05;7.28;;;29.30;51.50;;;;;;4994397;28;20035;-80
2023/06/18 09:35:26;;;;;;;10.90;5.93;;;29.30;51.50;;;;;;4994702;28;20113;-82
2023/06/18 09:37:52;;;;;;;7.90;4.90;;;29.40;51.40;;;;;;4994111;28;20022;-80
2023/06/18 09:40:20;;;;;;;8.77;5.28;;;29.40;51.50;;;;;;4994311;28;20034;-80
2023/06/18 09:42:51;;;;;;;7.85;4.90;;;29.40;51.00;;;;;;4994324;28;20035;-81
2023/06/18 09:45:17;;;;;;;10.15;5.72;;;29.50;50.60;;;;;;4994052;28;20046;-80
2023/06/18 09:47:47;;;;;;;12.65;7.13;;;29.50;50.90;;;;;;4994033;28;20089;-78
2023/06/18 09:50:12;;;;;;;10.02;5.75;;;29.50;51.00;;;;;;4993703;28;20029;-78
2023/06/18 09:52:46;;;;;;;13.48;7.25;;;29.60;50.60;;;;;;4994123;28;20113;-80
2023/06/18 09:55:45;;;;;;;12.57;5.82;;;29.60;50.80;;;;;;4994013;28;20045;-80
2023/06/18 09:58:10;;;;;;;10.40;5.90;;;29.70;50.10;;;;;;4940543;28;20400;-78
2023/06/18 10:00:39;;;;;;;15.23;7.65;;;29.70;49.90;;;;;;4994270;28;20041;-79
2023/06/18 10:03:06;;;;;;;8.65;5.60;;;29.80;50.60;;;;;;4976424;28;20034;-79
2023/06/18 10:05:32;;;;;;;7.40;5.10;;;29.80;49.80;;;;;;4976484;28;20038;-80
2023/06/18 10:07:59;;;;;;;9.98;5.35;;;29.80;49.90;;;;;;4993965;28;20442;-80
2023/06/18 10:10:25;;;;;;;9.52;5.80;;;29.80;49.60;;;;;;4993705;28;20038;-80
2023/06/18 10:12:53;;;;;;;10.40;5.65;;;29.80;49.50;;;;;;4993846;28;20543;-79
2023/06/18 10:15:22;;;;;;;10.55;6.90;;;29.90;50.00;;;;;;4993766;28;20092;-78
2023/06/18 10:17:52;;;;;;;9.07;5.53;;;30.00;50.60;;;;;;4993961;28;20397;-80
2023/06/18 10:20:18;;;;;;;11.25;5.75;;;30.00;50.20;;;;;;4994281;28;20485;-81
2023/06/18 10:22:54;;;;;;;14.52;6.50;;;30.00;49.80;;;;;;4995007;28;20039;-81
2023/06/18 10:25:21;;;;;;;13.02;6.93;;;30.00;48.90;;;;;;4993607;28;20053;-80
2023/06/18 10:27:49;;;;;;;10.52;6.32;;;30.00;50.50;;;;;;4993903;28;20488;-80
2023/06/18 10:30:15;;;;;;;7.32;5.53;;;30.10;50.20;;;;;;4993617;28;20138;-80
2023/06/18 10:32:43;;;;;;;8.88;6.45;;;30.10;51.20;;;;;;4993391;28;20035;-79
2023/06/18 10:35:11;;;;;;;9.70;5.97;;;30.20;51.80;;;;;;4993569;28;20043;-82
2023/06/18 10:37:39;;;;;;;11.07;7.25;;;30.20;51.90;;;;;;4992854;28;20048;-81
2023/06/18 10:40:06;;;;;;;10.60;6.53;;;30.10;52.00;;;;;;4993496;28;20089;-81
2023/06/18 10:42:33;;;;;;;15.55;6.68;;;30.20;52.50;;;;;;4993473;28;20567;-80
2023/06/18 10:45:08;;;;;;;12.30;6.50;;;30.20;52.60;;;;;;4993319;28;20049;-82
2023/06/18 10:47:34;;;;;;;17.02;7.55;;;30.20;52.70;;;;;;4993384;28;20101;-80
2023/06/18 10:50:00;;;;;;;13.07;7.68;;;30.20;52.70;;;;;;4993991;28;20062;-80
2023/06/18 10:52:27;;;;;;;9.52;6.68;;;30.30;53.20;;;;;;4993203;28;20070;-80
2023/06/18 10:55:26;;;;;;;14.15;6.78;;;30.30;52.40;;;;;;4993026;28;20046;-81
2023/06/18 10:58:04;;;;;;;11.35;6.65;;;30.40;51.60;;;;;;4993301;28;20034;-82
2023/06/18 11:00:40;;;;;;;8.40;6.10;;;30.40;51.50;;;;;;4993088;28;20400;-79
2023/06/18 11:03:13;;;;;;;8.68;5.93;;;30.40;50.90;;;;;;4992151;28;20445;-81
2023/06/18 11:05:41;;;;;;;10.48;5.75;;;30.50;51.90;;;;;;4994783;28;20179;-82
2023/06/18 11:08:09;;;;;;;10.23;5.93;;;30.50;51.40;;;;;;4993113;28;20054;-77
2023/06/18 11:10:38;;;;;;;10.40;5.40;;;30.50;51.40;;;;;;4992700;28;20041;-79
2023/06/18 11:13:05;;;;;;;13.18;5.47;;;30.50;51.20;;;;;;4993090;28;20429;-78
2023/06/18 11:15:33;;;;;;;9.88;5.75;;;30.60;51.20;;;;;;4992420;28;20046;-83
2023/06/18 11:18:01;;;;;;;12.05;5.80;;;30.60;51.10;;;;;;4992412;28;20709;-79
2023/06/18 11:20:30;;;;;;;8.45;5.60;;;30.70;51.10;;;;;;4992699;28;20030;-79
2023/06/18 11:22:58;;;;;;;10.85;4.97;;;30.70;51.00;;;;;;4992455;28;20035;-82
2023/06/18 11:25:28;;;;;;;11.70;6.22;;;30.80;50.30;;;;;;4992207;28;20038;-78
2023/06/18 11:27:55;;;;;;;8.13;5.40;;;30.80;50.10;;;;;;4992176;28;20050;-79
2023/06/18 11:30:21;;;;;;;10.52;5.75;;;30.90;49.90;;;;;;4992120;28;20384;-76
2023/06/18 11:32:47;;;;;;;7.60;5.40;;;30.90;49.30;;;;;;4992224;28;20035;-75
2023/06/18 11:35:13;;;;;;;11.65;5.07;;;31.00;48.70;;;;;;4992454;28;20038;-78
2023/06/18 11:37:42;;;;;;;11.18;5.70;;;31.10;48.90;;;;;;4992599;28;20037;-75
2023/06/18 11:40:09;;;;;;;15.00;6.00;;;31.10;48.80;;;;;;4992355;28;20042;-79
2023/06/18 11:42:52;;;;;;;13.40;6.72;;;31.10;49.20;;;;;;4991971;28;20034;-75
2023/06/18 11:45:19;;;;;;;13.43;6.72;;;31.20;48.30;;;;;;4992228;28;20112;-78
2023/06/18 11:47:54;;;;;;;7.10;4.78;;;31.20;49.50;;;;;;4992930;28;20524;-81
2023/06/18 11:50:25;;;;;;;13.35;6.50;;;31.20;48.70;;;;;;4989854;28;20494;-80
2023/06/18 11:52:51;;;;;;;10.32;6.45;;;31.30;50.00;;;;;;4991750;28;20058;-80
2023/06/18 11:55:18;;;;;;;11.15;6.10;;;31.30;50.30;;;;;;4991589;28;20060;-76
2023/06/18 11:57:44;;;;;;;8.48;5.38;;;31.30;49.90;;;;;;4991533;28;20062;-86
2023/06/18 12:00:12;;;;;;;7.18;4.93;;;31.30;49.30;;;;;;4992027;28;20049;-78
2023/06/18 12:02:39;;;;;;;8.60;5.22;;;31.30;48.40;;;;;;4991918;28;20408;-79
2023/06/18 12:05:05;;;;;;;8.52;5.15;;;31.30;48.90;;;;;;4990461;28;20081;-76
2023/06/18 12:07:32;;;;;;;10.02;5.63;;;31.40;49.10;;;;;;4992207;28;20441;-84
2023/06/18 12:10:03;;;;;;;7.65;5.55;;;31.50;49.40;;;;;;4998459;28;20041;-81
2023/06/18 12:12:42;;;;;;;9.25;5.30;;;31.40;49.20;;;;;;4991897;28;20132;-80
2023/06/18 12:15:25;;;;;;;9.35;5.05;;;31.40;47.60;;;;;;4995993;28;20408;-82
2023/06/18 12:18:16;;;;;;;9.48;5.43;;;31.40;48.10;;;;;;4995639;28;20034;-79
2023/06/18 12:20:42;;;;;;;6.50;5.03;;;31.40;48.20;;;;;;4995165;28;20041;-79
2023/06/18 12:23:08;;;;;;;12.95;5.05;;;31.40;50.00;;;;;;4995572;28;20110;-80
2023/06/18 12:25:34;;;;;;;8.68;5.05;;;31.40;50.30;;;;;;4995746;28;20383;-80
2023/06/18 12:28:02;;;;;;;8.50;5.65;;;31.40;50.80;;;;;;4997296;28;20035;-80
2023/06/18 12:30:36;;;;;;;10.18;5.35;;;31.40;51.60;;;;;;4979639;28;20427;-82
2023/06/18 12:33:10;;;;;;;12.55;5.40;;;31.40;50.20;;;;;;4995663;28;20575;-81
2023/06/18 12:35:37;;;;;;;8.82;5.50;;;31.40;50.30;;;;;;4977426;28;20445;-82
2023/06/18 12:38:09;;;;;;;8.27;5.47;;;31.40;51.60;;;;;;4995708;28;20034;-82
2023/06/18 12:40:55;;;;;;;11.75;6.20;;;31.30;51.50;;;;;;4996338;28;20134;-80
2023/06/18 12:43:22;;;;;;;9.00;6.25;;;31.30;52.10;;;;;;5001253;28;20046;-83